Brooklyn, MI (49230)

4:56 PM EDT on April 30, 2017 (GMT -0400)
Riverside Road | | Change Station

Elev 1003 ft 42.12 °N, 84.27 °W | Updated 4 minutes ago

Light Rain
Light Rain Mist
52.9 °F
Feels Like 52.9 °F
N
7.5
Wind Variable Wind from SSW
Gusts 17.4 mph

Today
High -- | Low -- °F
--% Chance of Precip.
Yesterday
High -- | Low -- °F
Precip. -- in
Pressure 29.84 in
Visibility 1.8 miles
Clouds Scattered Clouds 400 ft
Mostly Cloudy 1700 ft
Overcast 2100 ft
Dew Point 53 °F
Humidity 100%
Rainfall 0.23 in
Snow Depth Not available.
6:33 AM 8:35 PM
Waxing Crescent, 26% visible
SPECI KJXN 302046Z 14004KT 1 3/4SM -RA BR SCT004 BKN017 OVC021 12/11 A2984 RMK AO2 P0006 T01220111 $
Pressure 29.84 in
Visibility 1.8 miles
Clouds Scattered Clouds 400 ft
Mostly Cloudy 1700 ft
Overcast 2100 ft
Dew Point 53 °F
Humidity 100%
Rainfall 0.23 in
Snow Depth Not available.
6:33 AM 8:35 PM
Waxing Crescent, 26% visible
SPECI KJXN 302046Z 14004KT 1 3/4SM -RA BR SCT004 BKN017 OVC021 12/11 A2984 RMK AO2 P0006 T01220111 $

Get Severe Weather Alerts

Thanks for signing up!

Be on the lookout for a verification email in your inbox.

You'll start receiving the daily forecast at 8 AM.

×

10-Day Weather Forecast

Almanac

Astronomy

Apr. 30, 2017 Rise Set
Actual Time
Civil Twilight
Nautical Twilight
Astronomical Twilight
Moon
Length of Visible Light
Length of Day
Tomorrow will be .
, % of the Moon is Illuminated

Today's Extremes

State Highs State Lows

Community

WunderPhotos

WunderBlog® & News

Nearby

Air Quality

  Air Quality AQ Index Pollutant
Not available.

Snow Depth

Station Depth Elevation

Earthquake Activity

City Distance Mag. Time & Date
Minimum magnitude displayed is 2.5.

Coastal Water Temperatures

Place Temperature

Stations

Nearby Weather Stations

Station Location Temp. Windchill Dew Point Humidity Wind Precip. Elev Updated Type
                   

Watches & Warnings

There are currently no watches in effect.